Time;durP1;ratioP1;P1;durP2;ratioP2;P2;SDS_P1;SDS_P2;PMS_P1;PMS_P2;Temp;Humidity;BMP_temperature;BMP_pressure;BME280_temperature;BME280_humidity;BME280_pressure;Samples;Min_cycle;Max_cycle;Signal;HPM_P1;HPM_P2
2021/10/14 00:00:26;;;;;;;23.98;17.05;;;;;;;7.80;83.03;100385.95;1764049;80;21427;-74
2021/10/14 00:02:53;;;;;;;24.00;17.73;;;;;;;7.78;83.04;100394.67;1742869;81;21070;-74
2021/10/14 00:05:20;;;;;;;24.57;17.87;;;;;;;7.80;82.91;100398.41;1739316;81;21607;-74
2021/10/14 00:07:49;;;;;;;23.98;17.95;;;;;;;7.79;82.78;100392.29;1731070;81;21006;-73
2021/10/14 00:10:18;;;;;;;25.25;17.07;;;;;;;7.80;82.77;100393.09;1738573;81;21362;-74
2021/10/14 00:12:47;;;;;;;26.25;16.57;;;;;;;7.80;82.69;100395.25;1738171;81;21054;-72
2021/10/14 00:15:15;;;;;;;24.37;16.93;;;;;;;7.78;82.45;100392.02;1736874;81;21098;-73
2021/10/14 00:17:42;;;;;;;23.32;16.15;;;;;;;7.79;82.52;100391.48;1742630;81;21066;-73
2021/10/14 00:20:10;;;;;;;23.22;16.52;;;;;;;7.79;82.52;100402.13;1737071;81;21170;-73
2021/10/14 00:22:39;;;;;;;22.98;15.70;;;;;;;7.77;82.49;100398.92;1738965;80;21046;-73
2021/10/14 00:25:07;;;;;;;26.90;17.57;;;;;;;7.78;82.42;100407.17;1740761;81;21602;-72
2021/10/14 00:27:33;;;;;;;23.83;16.77;;;;;;;7.77;82.40;100405.57;1738213;81;21103;-73
2021/10/14 00:30:00;;;;;;;24.50;16.30;;;;;;;7.78;82.40;100405.84;1744990;81;21058;-73
2021/10/14 00:32:26;;;;;;;22.52;16.15;;;;;;;7.78;82.29;100415.95;1741234;81;21125;-73
2021/10/14 00:34:53;;;;;;;22.90;16.12;;;;;;;;;;1738745;81;21194;-73
2021/10/14 00:37:20;;;;;;;23.10;15.93;;;;;;;7.77;82.08;100420.99;1740066;81;21034;-73
2021/10/14 00:39:47;;;;;;;22.13;15.53;;;;;;;7.78;81.99;100421.80;1719045;81;21046;-73
2021/10/14 00:42:14;;;;;;;19.90;14.63;;;;;;;7.77;81.96;100422.32;1739417;81;21694;-73
2021/10/14 00:44:49;;;;;;;21.60;15.35;;;;;;;7.78;82.01;100427.91;1738792;81;21093;-74
2021/10/14 00:47:21;;;;;;;21.30;14.73;;;;;;;7.77;82.08;100421.52;1746769;81;21142;-73
2021/10/14 00:49:48;;;;;;;20.95;14.73;;;;;;;7.79;82.15;100428.72;1744593;81;21550;-73
2021/10/14 00:52:15;;;;;;;20.37;14.75;;;;;;;7.79;82.21;100426.05;1742110;81;21066;-73
2021/10/14 00:54:42;;;;;;;22.82;15.25;;;;;;;7.79;82.25;100427.38;1731620;81;21081;-74
2021/10/14 00:57:10;;;;;;;21.00;14.90;;;;;;;7.78;82.25;100427.11;1712359;81;21048;-73
2021/10/14 00:59:39;;;;;;;21.02;14.25;;;;;;;7.76;82.16;100431.32;1738431;81;21086;-74
2021/10/14 01:02:05;;;;;;;18.30;14.03;;;;;;;7.73;82.02;100437.95;1713619;81;22138;-73
2021/10/14 01:04:32;;;;;;;20.68;13.70;;;;;;;7.71;81.84;100433.91;1740770;81;21065;-73
2021/10/14 01:06:59;;;;;;;19.37;14.23;;;;;;;7.70;81.88;100442.42;1736828;81;21093;-73
2021/10/14 01:09:27;;;;;;;18.60;13.18;;;;;;;7.69;81.74;100448.77;1748940;81;21137;-73
2021/10/14 01:12:03;;;;;;;21.02;13.83;;;;;;;7.68;81.72;100443.17;1735586;81;21069;-73
2021/10/14 01:14:31;;;;;;;18.67;13.18;;;;;;;7.69;81.72;100439.98;1741931;81;21125;-73
2021/10/14 01:16:58;;;;;;;19.23;13.18;;;;;;;7.68;81.64;100446.36;1734064;81;21080;-73
2021/10/14 01:19:26;;;;;;;21.37;13.70;;;;;;;7.68;81.68;100443.17;1744617;81;21124;-73
2021/10/14 01:21:53;;;;;;;19.62;13.25;;;;;;;7.67;81.75;100443.42;1746793;79;21093;-73
2021/10/14 01:24:20;;;;;;;20.23;14.87;;;;;;;7.64;81.76;100440.72;1729122;81;21185;-74
2021/10/14 01:26:46;;;;;;;18.25;14.10;;;;;;;7.62;81.87;100442.80;1739729;81;21125;-73
2021/10/14 01:29:15;;;;;;;20.62;14.15;;;;;;;7.59;81.87;100452.58;1733203;81;21106;-74
2021/10/14 01:31:42;;;;;;;20.10;13.85;;;;;;;7.58;81.88;100448.31;1749122;81;21007;-74
2021/10/14 01:34:15;;;;;;;23.22;14.00;;;;;;;7.57;81.88;100465.32;1734259;81;21066;-74
2021/10/14 01:36:41;;;;;;;20.27;14.43;;;;;;;7.54;81.79;100459.15;1731187;80;21136;-74
2021/10/14 01:39:08;;;;;;;19.67;13.83;;;;;;;7.54;81.80;100470.31;1739563;81;21479;-74
2021/10/14 01:41:34;;;;;;;19.00;13.65;;;;;;;7.52;81.82;100467.87;1727125;81;21075;-74
2021/10/14 01:44:01;;;;;;;17.55;13.30;;;;;;;7.49;81.81;100465.69;1733586;80;21090;-73
2021/10/14 01:46:28;;;;;;;18.05;13.00;;;;;;;7.50;81.77;100495.20;1742353;81;21591;-74
2021/10/14 01:48:56;;;;;;;18.37;13.45;;;;;;;7.48;81.72;100487.48;1724991;81;21534;-74
2021/10/14 01:51:24;;;;;;;16.97;12.75;;;;;;;7.49;81.61;100489.61;1724120;81;21058;-73
2021/10/14 01:53:52;;;;;;;18.23;12.75;;;;;;;7.49;81.60;100489.61;1726313;83;21090;-72
2021/10/14 01:56:19;;;;;;;20.05;13.38;;;;;;;7.48;81.53;100484.02;1744113;81;21074;-74
2021/10/14 01:58:46;;;;;;;17.15;13.22;;;;;;;7.46;81.55;100484.77;1724455;81;21139;-73
2021/10/14 02:01:15;;;;;;;15.50;12.47;;;;;;;7.46;81.54;100496.73;1734828;81;21834;-74
2021/10/14 02:03:43;;;;;;;20.82;13.43;;;;;;;7.44;81.41;100490.86;1746661;81;21034;-74
2021/10/14 02:06:13;;;;;;;19.20;13.32;;;;;;;7.42;81.49;100491.61;1722958;81;21090;-73
2021/10/14 02:08:41;;;;;;;19.23;12.80;;;;;;;7.40;81.49;100489.17;1724040;82;21041;-73
2021/10/14 02:11:08;;;;;;;17.15;12.85;;;;;;;7.39;81.48;100497.39;1727968;81;21676;-74
2021/10/14 02:13:36;;;;;;;17.10;12.98;;;;;;;7.38;81.44;100508.55;1721299;81;21155;-74
2021/10/14 02:16:04;;;;;;;18.20;13.30;;;;;;;7.36;81.49;100501.33;1724534;81;21149;-74
2021/10/14 02:18:31;;;;;;;18.70;12.82;;;;;;;7.35;81.48;100499.72;1697149;84;21037;-74
2021/10/14 02:20:59;;;;;;;16.17;11.55;;;;;;;7.35;81.49;100504.23;1708906;81;21552;-74
2021/10/14 02:23:26;;;;;;;15.85;11.50;;;;;;;7.33;81.52;100504.98;1729000;81;21079;-74
2021/10/14 02:25:56;;;;;;;17.82;12.75;;;;;;;7.31;81.51;100507.08;1726989;81;21379;-73
2021/10/14 02:28:24;;;;;;;17.17;12.00;;;;;;;7.28;81.53;100515.80;1713321;81;21175;-73
2021/10/14 02:30:59;;;;;;;16.62;12.50;;;;;;;7.26;81.59;100515.22;1755507;81;21563;-73
2021/10/14 02:33:28;;;;;;;16.02;11.25;;;;;;;7.23;81.70;100518.34;1735874;81;21568;-73
2021/10/14 02:36:03;;;;;;;16.70;11.70;;;;;;;7.19;81.78;100515.88;1697023;82;21573;-74
2021/10/14 02:38:32;;;;;;;14.73;10.45;;;;;;;7.14;81.93;100525.09;1741727;81;21143;-73
2021/10/14 02:40:59;;;;;;;17.70;11.18;;;;;;;7.09;82.09;100526.30;1742200;81;21025;-73
2021/10/14 02:43:27;;;;;;;17.80;11.65;;;;;;;7.01;82.28;100534.12;1743940;81;21097;-73
2021/10/14 02:45:54;;;;;;;15.83;12.58;;;;;;;6.96;82.37;100535.85;1720041;81;21058;-73
2021/10/14 02:48:22;;;;;;;16.20;11.45;;;;;;;6.89;82.58;100539.95;1744039;81;21086;-73
2021/10/14 02:50:49;;;;;;;15.10;11.80;;;;;;;6.84;82.72;100539.03;1728716;81;21137;-73
2021/10/14 02:53:16;;;;;;;16.77;12.30;;;;;;;6.76;83.01;100539.68;1721008;81;21085;-73
2021/10/14 02:55:45;;;;;;;15.50;12.18;;;;;;;6.70;83.16;100547.76;1746925;81;21022;-73
2021/10/14 02:58:18;;;;;;;16.25;12.00;;;;;;;6.65;83.30;100544.48;1724861;81;21047;-73
2021/10/14 03:00:47;;;;;;;16.52;12.80;;;;;;;6.61;83.52;100550.46;1742174;81;21041;-73
2021/10/14 03:03:16;;;;;;;17.32;11.60;;;;;;;6.55;83.65;100553.02;1732771;81;21091;-73
2021/10/14 03:05:44;;;;;;;17.73;12.37;;;;;;;6.53;83.80;100567.55;1733112;81;21082;-73
2021/10/14 03:08:26;;;;;;;15.63;10.85;;;;;;;6.49;83.92;100560.56;1746962;81;21085;-73
2021/10/14 03:11:00;;;;;;;18.45;12.50;;;;;;;6.46;84.20;100558.89;1741027;81;21507;-74
2021/10/14 03:13:36;;;;;;;16.35;12.35;;;;;;;6.41;84.28;100564.87;1730111;81;21042;-72
2021/10/14 03:16:41;;;;;;;16.00;12.53;;;;;;;6.38;84.41;100567.17;1727568;81;21156;-73
2021/10/14 03:19:07;;;;;;;16.90;12.60;;;;;;;6.33;84.48;100566.55;1694765;82;21602;-73
2021/10/14 03:21:34;;;;;;;15.28;11.53;;;;;;;6.29;84.63;100568.05;1695437;82;21130;-73
2021/10/14 03:24:03;;;;;;;19.20;13.13;;;;;;;6.24;84.80;100577.99;1708615;82;21105;-73
2021/10/14 03:26:30;;;;;;;16.52;12.63;;;;;;;6.19;84.92;100575.23;1720933;82;21041;-73
2021/10/14 03:28:57;;;;;;;16.70;12.75;;;;;;;6.14;85.00;100569.78;1706441;82;21119;-73
2021/10/14 03:31:25;;;;;;;18.52;12.98;;;;;;;6.10;85.10;100568.63;1711097;82;21118;-73
2021/10/14 03:33:59;;;;;;;19.60;13.85;;;;;;;6.06;85.31;100570.13;1704181;82;21156;-73
2021/10/14 03:36:28;;;;;;;17.40;13.08;;;;;;;6.02;85.40;100578.22;1699361;82;21008;-73
2021/10/14 03:38:57;;;;;;;17.45;12.75;;;;;;;5.97;85.60;100581.56;1701142;82;21575;-74
2021/10/14 03:41:25;;;;;;;18.17;13.35;;;;;;;5.94;85.74;100579.87;1700686;82;21554;-74
2021/10/14 03:43:52;;;;;;;17.48;12.03;;;;;;;5.90;85.86;100586.64;1699952;82;21087;-73
2021/10/14 03:46:19;;;;;;;16.30;12.33;;;;;;;5.84;86.07;100583.84;1707945;82;21036;-74
2021/10/14 03:48:47;;;;;;;20.75;14.07;;;;;;;5.81;86.26;100588.27;1702066;82;21164;-73
2021/10/14 03:51:15;;;;;;;19.48;13.58;;;;;;;5.75;86.45;100589.67;1702911;82;21071;-74
2021/10/14 03:53:42;;;;;;;19.12;14.05;;;;;;;5.69;86.72;100590.05;1704735;82;21102;-73
2021/10/14 03:56:09;;;;;;;20.02;13.78;;;;;;;5.66;86.87;100595.82;1695087;82;21099;-74
2021/10/14 03:58:37;;;;;;;17.45;13.65;;;;;;;5.63;87.10;100597.59;1698230;83;21165;-73
2021/10/14 04:01:04;;;;;;;17.27;12.07;;;;;;;5.61;87.23;100607.59;1699112;82;21121;-74
2021/10/14 04:03:32;;;;;;;15.68;11.97;;;;;;;5.57;87.40;100613.05;1694365;82;21564;-73
2021/10/14 04:05:59;;;;;;;17.23;11.85;;;;;;;5.52;87.48;100613.70;1694862;82;21193;-72
2021/10/14 04:08:33;;;;;;;14.90;12.13;;;;;;;5.47;87.64;100616.22;1694669;82;21090;-72
2021/10/14 04:11:03;;;;;;;16.93;12.47;;;;;;;5.45;87.75;100620.11;1689225;82;21062;-73
2021/10/14 04:13:31;;;;;;;17.42;10.78;;;;;;;5.40;87.96;100619.46;1691056;82;21024;-73
2021/10/14 04:16:01;;;;;;;20.02;13.20;;;;;;;5.35;88.08;100622.75;1694370;82;21067;-73
2021/10/14 04:18:30;;;;;;;18.32;12.95;;;;;;;5.33;88.13;100628.81;1698638;82;21592;-73
2021/10/14 04:20:58;;;;;;;20.27;13.62;;;;;;;5.33;88.19;100626.64;1695347;82;21736;-73
2021/10/14 04:23:26;;;;;;;18.80;12.95;;;;;;;5.30;88.30;100626.59;1685215;82;21526;-73
2021/10/14 04:25:53;;;;;;;16.85;12.65;;;;;;;5.25;88.38;100633.05;1695777;82;22243;-73
2021/10/14 04:28:19;;;;;;;15.72;12.15;;;;;;;5.22;88.42;100638.78;1706851;82;21070;-74
2021/10/14 04:30:46;;;;;;;17.95;13.30;;;;;;;5.17;88.48;100638.66;1705573;82;21162;-74
2021/10/14 04:33:13;;;;;;;18.52;13.58;;;;;;;5.11;88.56;100642.17;1693123;82;21640;-74
2021/10/14 04:35:40;;;;;;;17.20;12.10;;;;;;;5.07;88.56;100647.09;1716056;82;21047;-74
2021/10/14 04:38:08;;;;;;;17.80;13.62;;;;;;;5.03;88.58;100656.48;1696233;82;21108;-73
2021/10/14 04:40:34;;;;;;;22.37;15.58;;;;;;;4.99;88.68;100658.46;1707672;82;21036;-74
2021/10/14 04:43:01;;;;;;;18.40;14.05;;;;;;;4.94;88.75;100658.61;1710733;82;21568;-74
2021/10/14 04:45:28;;;;;;;20.68;14.35;;;;;;;4.89;88.87;100665.05;1695060;82;21073;-73
2021/10/14 04:47:55;;;;;;;20.57;14.38;;;;;;;4.83;88.96;100664.59;1700230;82;21439;-74
2021/10/14 04:50:22;;;;;;;22.02;15.75;;;;;;;4.80;89.08;100670.31;1698967;82;21723;-73
2021/10/14 04:52:49;;;;;;;22.20;15.10;;;;;;;4.77;89.13;100672.58;1700896;82;21024;-74
2021/10/14 04:55:16;;;;;;;21.73;15.40;;;;;;;4.73;89.27;100684.63;1709135;82;21158;-74
2021/10/14 04:57:42;;;;;;;19.65;14.03;;;;;;;4.69;89.32;100690.34;1715783;82;21006;-73
2021/10/14 05:00:11;;;;;;;20.95;14.90;;;;;;;4.65;89.37;100692.33;1683507;82;21054;-74
2021/10/14 05:02:38;;;;;;;19.27;13.88;;;;;;;4.58;89.42;100688.92;1701308;82;21148;-73
2021/10/14 05:05:06;;;;;;;23.05;16.10;;;;;;;4.52;89.55;100706.45;1700785;82;21784;-73
2021/10/14 05:07:35;;;;;;;22.58;16.25;;;;;;;4.49;89.71;100712.67;1702550;82;21061;-74
2021/10/14 05:10:03;;;;;;;20.52;15.83;;;;;;;4.43;89.85;100717.78;1691043;82;21030;-74
2021/10/14 05:12:31;;;;;;;22.65;17.35;;;;;;;4.39;89.83;100722.39;1671118;83;21018;-74
2021/10/14 05:14:59;;;;;;;24.07;15.38;;;;;;;4.36;89.80;100724.14;1685493;82;21065;-74
2021/10/14 05:17:28;;;;;;;21.50;16.42;;;;;;;4.32;89.84;100725.07;1692701;82;21014;-74
2021/10/14 05:19:57;;;;;;;20.82;15.38;;;;;;;4.32;89.87;100726.39;1693849;82;21135;-74
2021/10/14 05:22:23;;;;;;;24.30;17.98;;;;;;;4.31;89.92;100728.75;1705190;82;21075;-72
2021/10/14 05:24:56;;;;;;;23.55;17.50;;;;;;;4.32;89.93;100731.69;1702088;82;21098;-73
2021/10/14 05:27:24;;;;;;;21.05;16.52;;;;;;;4.33;89.96;100738.59;1700778;82;21115;-76
2021/10/14 05:29:51;;;;;;;21.87;16.10;;;;;;;4.38;89.99;100740.61;1701836;82;21071;-73
2021/10/14 05:32:18;;;;;;;23.73;17.70;;;;;;;4.41;90.05;100747.61;1693547;82;21811;-73
2021/10/14 05:34:44;;;;;;;27.87;18.80;;;;;;;4.44;90.04;100753.80;1721681;82;20991;-75
2021/10/14 05:37:11;;;;;;;24.18;17.80;;;;;;;4.49;89.98;100760.29;1686923;82;21050;-73
2021/10/14 05:39:37;;;;;;;21.95;17.70;;;;;;;4.56;90.00;100763.19;1696884;83;21061;-74
2021/10/14 05:42:04;;;;;;;28.12;18.12;;;;;;;4.61;89.98;100766.53;1688706;83;21636;-74
2021/10/14 05:44:31;;;;;;;23.85;17.95;;;;;;;4.66;89.92;100764.05;1695827;82;21079;-74
2021/10/14 05:46:58;;;;;;;25.82;18.67;;;;;;;4.72;89.89;100765.84;1700806;82;21114;-74
2021/10/14 05:49:25;;;;;;;28.80;21.07;;;;;;;4.74;89.67;100766.45;1700827;83;21115;-73
2021/10/14 05:51:52;;;;;;;24.18;16.90;;;;;;;4.74;89.49;100769.11;1696550;83;21125;-74
2021/10/14 05:54:19;;;;;;;26.97;19.90;;;;;;;4.77;89.52;100771.33;1720032;82;21517;-72
2021/10/14 05:56:45;;;;;;;23.05;18.42;;;;;;;4.84;89.45;100777.38;1697351;82;21436;-73
2021/10/14 05:59:12;;;;;;;24.12;17.95;;;;;;;4.90;89.37;100780.98;1697027;82;21136;-74
2021/10/14 06:01:39;;;;;;;24.27;16.82;;;;;;;4.97;89.27;100783.59;1688172;82;21054;-75
2021/10/14 06:04:05;;;;;;;26.73;19.32;;;;;;;5.04;89.24;100793.65;1693125;81;21613;-74
2021/10/14 06:06:33;;;;;;;25.02;18.90;;;;;;;5.13;89.08;100791.02;1703208;82;21102;-74
2021/10/14 06:09:00;;;;;;;25.05;19.12;;;;;;;5.23;88.86;100791.38;1700264;81;21813;-75
2021/10/14 06:11:27;;;;;;;25.50;18.90;;;;;;;5.33;88.80;100791.69;1662418;84;21165;-74
2021/10/14 06:13:54;;;;;;;26.40;20.27;;;;;;;5.44;88.53;100793.34;1668460;84;20991;-75
2021/10/14 06:16:20;;;;;;;24.18;18.07;;;;;;;5.54;88.37;100792.33;1694736;82;21152;-74
2021/10/14 06:18:47;;;;;;;22.27;17.48;;;;;;;5.64;88.08;100797.94;1698366;82;21560;-74
2021/10/14 06:21:16;;;;;;;24.75;18.48;;;;;;;5.72;87.66;100796.31;1682041;82;21157;-75
2021/10/14 06:23:43;;;;;;;28.25;21.30;;;;;;;5.78;87.33;100797.30;1689340;83;21097;-74
2021/10/14 06:26:13;;;;;;;26.02;20.25;;;;;;;5.81;87.23;100804.29;1685716;82;21548;-74
2021/10/14 06:28:53;;;;;;;23.67;19.20;;;;;;;5.91;87.05;100810.93;1718145;81;21083;-74
2021/10/14 06:31:35;;;;;;;26.42;20.75;;;;;;;5.93;86.55;100807.07;1686418;82;21023;-75
2021/10/14 06:34:04;;;;;;;23.52;17.62;;;;;;;5.95;86.31;100818.25;1710693;83;22141;-75
2021/10/14 06:36:44;;;;;;;25.17;19.90;;;;;;;5.97;86.20;100822.83;1694552;82;21041;-73
2021/10/14 06:39:25;;;;;;;24.95;20.23;;;;;;;6.02;86.10;100819.02;1696408;82;21150;-74
2021/10/14 06:41:55;;;;;;;24.55;18.70;;;;;;;6.06;85.93;100826.01;1699615;83;21560;-73
2021/10/14 06:44:28;;;;;;;24.72;19.87;;;;;;;6.11;85.73;100816.34;1693737;82;21565;-74
2021/10/14 06:47:06;;;;;;;24.50;17.80;;;;;;;6.20;85.71;100818.19;1698331;82;21102;-75
2021/10/14 06:49:48;;;;;;;23.40;17.12;;;;;;;6.29;85.76;100818.20;1647162;84;21228;-73
2021/10/14 06:52:20;;;;;;;25.37;19.92;;;;;;;6.40;85.37;100818.48;1640891;85;21082;-74
2021/10/14 06:54:48;;;;;;;24.87;19.75;;;;;;;6.42;85.12;100819.08;1664074;84;21073;-74
2021/10/14 06:57:15;;;;;;;22.37;18.12;;;;;;;6.43;84.98;100826.00;1666365;84;21088;-74
2021/10/14 06:59:41;;;;;;;26.95;21.10;;;;;;;6.42;84.61;100827.05;1697577;82;21109;-75
2021/10/14 07:02:08;;;;;;;25.55;21.35;;;;;;;6.39;84.51;100824.83;1662609;84;21615;-75
2021/10/14 07:04:36;;;;;;;26.12;21.37;;;;;;;6.42;84.41;100828.37;1639249;85;21596;-76
2021/10/14 07:07:05;;;;;;;25.65;21.30;;;;;;;6.47;84.41;100826.64;1661556;84;21120;-73
2021/10/14 07:09:40;;;;;;;25.60;20.75;;;;;;;6.57;84.39;100830.09;1662966;84;38312;-74
2021/10/14 07:12:18;;;;;;;24.02;19.50;;;;;;;6.66;84.27;100840.70;1658892;84;21155;-74
2021/10/14 07:14:57;;;;;;;27.85;21.90;;;;;;;6.73;84.13;100833.47;1661784;85;21009;-73
2021/10/14 07:17:29;;;;;;;26.52;20.25;;;;;;;6.81;83.68;100846.44;1683995;83;21070;-74
2021/10/14 07:19:57;;;;;;;26.20;20.70;;;;;;;6.87;83.31;100843.91;1669580;84;21079;-75
2021/10/14 07:22:33;;;;;;;26.60;20.55;;;;;;;6.93;83.06;100847.80;1667211;84;21056;-75
2021/10/14 07:25:08;;;;;;;25.65;21.12;;;;;;;7.01;82.67;100848.02;1674204;84;21792;-74
2021/10/14 07:27:36;;;;;;;25.23;19.07;;;;;;;7.07;82.35;100849.74;1682620;84;21083;-74
2021/10/14 07:30:06;;;;;;;27.22;20.43;;;;;;;7.11;81.87;100848.28;1655313;84;21095;-73
2021/10/14 07:32:37;;;;;;;31.07;22.25;;;;;;;7.18;81.98;100845.00;1688091;83;21360;-73
2021/10/14 07:35:06;;;;;;;26.20;20.65;;;;;;;7.29;81.91;100846.86;1635338;86;21084;-74
2021/10/14 07:37:34;;;;;;;27.25;19.52;;;;;;;7.42;81.65;100854.34;1628069;86;21574;-74
2021/10/14 07:40:00;;;;;;;25.70;20.20;;;;;;;7.53;80.99;100858.86;1650865;85;21559;-75
2021/10/14 07:42:27;;;;;;;24.27;20.37;;;;;;;7.63;80.90;100852.45;1634106;86;21109;-75
2021/10/14 07:44:54;;;;;;;25.05;19.92;;;;;;;7.75;80.34;100855.13;1648539;85;21491;-74
2021/10/14 07:47:21;;;;;;;24.90;20.15;;;;;;;7.79;79.77;100858.94;1665693;83;21104;-74
2021/10/14 07:49:47;;;;;;;24.12;19.37;;;;;;;7.85;79.58;100865.20;1663817;84;21122;-74
2021/10/14 07:52:14;;;;;;;26.97;21.60;;;;;;;7.92;79.18;100857.91;1653495;84;21004;-74
2021/10/14 07:54:40;;;;;;;23.80;20.05;;;;;;;7.98;78.71;100867.09;1676131;83;21124;-74
2021/10/14 07:57:08;;;;;;;24.35;19.57;;;;;;;8.10;78.09;100875.61;1666850;84;21111;-74
2021/10/14 07:59:34;;;;;;;27.42;19.67;;;;;;;8.17;77.68;100871.78;1651196;84;21670;-74
2021/10/14 08:02:01;;;;;;;21.35;18.05;;;;;;;8.29;77.29;100865.62;1677969;83;21153;-74
2021/10/14 08:04:28;;;;;;;24.35;18.50;;;;;;;8.36;76.95;100869.80;1676929;84;21286;-74
2021/10/14 08:06:56;;;;;;;21.33;17.70;;;;;;;8.45;76.31;100875.05;1665634;84;21711;-74
2021/10/14 08:09:26;;;;;;;23.73;18.50;;;;;;;8.54;76.23;100874.17;1660759;83;21083;-74
2021/10/14 08:11:55;;;;;;;20.80;17.25;;;;;;;8.68;76.10;100871.52;1679285;83;21066;-74
2021/10/14 08:14:36;;;;;;;20.77;16.27;;;;;;;8.84;75.62;100874.48;1663254;84;21987;-74
2021/10/14 08:17:10;;;;;;;22.60;17.15;;;;;;;8.94;74.63;100877.34;1664011;84;21571;-74
2021/10/14 08:19:50;;;;;;;20.70;16.42;;;;;;;8.99;73.70;100878.78;1691896;83;21198;-75
2021/10/14 08:22:18;;;;;;;20.43;16.37;;;;;;;9.06;73.70;100874.11;1676171;83;21075;-74
2021/10/14 08:24:52;;;;;;;18.95;15.38;;;;;;;9.16;72.85;100870.82;1665853;84;21088;-74
2021/10/14 08:27:19;;;;;;;21.48;15.70;;;;;;;9.19;72.59;100869.01;1666261;85;21521;-74
2021/10/14 08:29:56;;;;;;;18.20;14.98;;;;;;;9.21;72.59;100872.75;1655679;84;21171;-74
2021/10/14 08:32:29;;;;;;;22.62;15.53;;;;;;;9.26;72.55;100875.52;1650498;85;21559;-74
2021/10/14 08:35:04;;;;;;;18.87;14.13;;;;;;;9.31;71.47;100880.92;1661850;84;21074;-74
2021/10/14 08:37:38;;;;;;;19.30;14.95;;;;;;;9.36;71.09;100878.36;1634481;85;21142;-73
2021/10/14 08:40:13;;;;;;;18.45;14.40;;;;;;;9.50;70.44;100878.32;1682732;83;21103;-73
2021/10/14 08:42:47;;;;;;;18.53;14.63;;;;;;;9.66;70.35;100870.58;1660804;84;21127;-74
2021/10/14 08:45:33;;;;;;;18.45;14.78;;;;;;;9.89;70.20;100881.06;1665414;83;21071;-74
2021/10/14 08:48:07;;;;;;;17.73;13.67;;;;;;;10.13;69.78;100876.86;1662144;84;21975;-73
2021/10/14 08:50:50;;;;;;;17.62;14.20;;;;;;;10.36;68.97;100873.20;1650604;84;21841;-74
2021/10/14 08:53:17;;;;;;;18.53;14.33;;;;;;;10.43;67.89;100881.83;1661188;85;21845;-75
2021/10/14 08:55:45;;;;;;;17.70;14.03;;;;;;;10.41;67.16;100880.75;1661912;84;21310;-75
2021/10/14 08:58:13;;;;;;;17.80;14.83;;;;;;;10.39;67.10;100882.86;1645735;84;21677;-74
2021/10/14 09:01:09;;;;;;;19.77;13.80;;;;;;;10.46;67.65;100883.50;1667381;83;21376;-73
2021/10/14 09:03:40;;;;;;;18.23;13.67;;;;;;;10.52;67.06;100878.48;1658822;84;21385;-73
2021/10/14 09:06:18;;;;;;;18.20;13.30;;;;;;;10.56;66.91;100891.64;1661351;84;21354;-75
2021/10/14 09:08:50;;;;;;;19.47;13.97;;;;;;;10.63;66.24;100884.77;1657988;85;21260;-74
2021/10/14 09:11:36;;;;;;;16.53;13.20;;;;;;;10.73;66.55;100886.23;1663799;84;21490;-74
2021/10/14 09:14:08;;;;;;;17.93;13.10;;;;;;;10.86;66.30;100889.05;1662037;84;21327;-75
2021/10/14 09:16:41;;;;;;;17.17;12.67;;;;;;;10.95;65.60;100891.53;1663559;84;22437;-76
2021/10/14 09:19:18;;;;;;;16.17;11.97;;;;;;;11.05;65.61;100892.17;1658789;86;21594;-76
2021/10/14 09:22:00;;;;;;;18.13;12.87;;;;;;;11.12;64.41;100887.95;1645108;85;21819;-75
2021/10/14 09:24:42;;;;;;;18.50;14.03;;;;;;;11.10;64.48;100896.24;1658613;83;21400;-74
2021/10/14 09:27:19;;;;;;;16.80;12.37;;;;;;;11.09;64.10;100897.31;1677364;84;21316;-73
2021/10/14 09:29:52;;;;;;;15.90;12.93;;;;;;;11.10;63.84;100913.62;1624128;85;22201;-73
2021/10/14 09:32:28;;;;;;;16.07;13.10;;;;;;;11.08;63.75;100893.00;1674815;84;21305;-75
2021/10/14 09:34:59;;;;;;;17.43;13.60;;;;;;;11.18;63.76;100893.63;1676068;83;21428;-74
2021/10/14 09:37:36;;;;;;;17.17;13.20;;;;;;;11.23;63.21;100892.36;1600879;86;21365;-75
2021/10/14 09:40:14;;;;;;;16.93;13.35;;;;;;;11.28;62.89;100893.20;1649510;85;21380;-75
2021/10/14 09:43:03;;;;;;;15.70;11.37;;;;;;;11.36;62.56;100895.16;1636636;86;21001;-73
2021/10/14 09:45:38;;;;;;;16.30;12.67;;;;;;;11.39;62.49;100897.33;1659159;84;21802;-76
2021/10/14 09:48:15;;;;;;;14.93;12.40;;;;;;;11.44;62.58;100904.84;1677016;83;21842;-74
2021/10/14 09:50:49;;;;;;;15.60;12.00;;;;;;;11.44;62.41;100908.86;1646171;85;21391;-74
2021/10/14 09:53:27;;;;;;;17.93;12.63;;;;;;;11.47;61.88;100903.00;1646353;84;21294;-74
2021/10/14 09:55:58;;;;;;;18.33;13.17;;;;;;;11.48;61.36;100900.63;1633591;85;21182;-75
2021/10/14 09:58:35;;;;;;;17.15;12.50;;;;;;;11.46;61.16;100902.73;1664192;84;21929;-75
2021/10/14 10:01:08;;;;;;;15.13;11.93;;;;;;;11.41;61.16;100894.66;1667908;83;21104;-74
2021/10/14 10:03:38;;;;;;;15.50;11.57;;;;;;;11.41;61.24;100898.66;1695197;82;21334;-74
2021/10/14 10:06:07;;;;;;;16.57;12.53;;;;;;;11.46;60.67;100896.59;1695093;83;22435;-74
2021/10/14 10:08:38;;;;;;;15.77;11.67;;;;;;;11.45;60.73;100894.45;1689873;83;21267;-76
2021/10/14 10:11:14;;;;;;;16.20;12.20;;;;;;;11.58;61.00;100900.41;1694178;82;21346;-74
2021/10/14 10:13:47;;;;;;;14.83;10.90;;;;;;;11.68;59.64;100904.00;1672930;82;21251;-75
2021/10/14 10:16:23;;;;;;;13.50;10.27;;;;;;;11.74;59.29;100912.85;1680691;83;21211;-74
2021/10/14 10:18:59;;;;;;;13.93;10.37;;;;;;;11.83;58.03;100926.05;1686038;83;21426;-73
2021/10/14 10:21:38;;;;;;;14.70;10.77;;;;;;;11.83;58.18;100921.23;1682983;82;21408;-74
2021/10/14 10:24:08;;;;;;;17.27;11.93;;;;;;;11.82;58.36;100927.66;1694362;82;21754;-73
2021/10/14 10:26:47;;;;;;;13.00;10.48;;;;;;;11.86;58.18;100925.56;1701802;82;21779;-73
2021/10/14 10:29:36;;;;;;;13.90;10.10;;;;;;;11.92;58.56;100918.39;1707618;82;21062;-73
2021/10/14 10:32:08;;;;;;;15.67;11.00;;;;;;;12.00;58.34;100916.56;1697871;82;21798;-73
2021/10/14 10:34:50;;;;;;;16.47;10.80;;;;;;;12.10;57.47;100924.66;1687889;83;21766;-73
2021/10/14 10:37:33;;;;;;;13.80;11.07;;;;;;;12.18;56.98;100940.79;1693407;81;21546;-73
2021/10/14 10:40:16;;;;;;;13.37;10.53;;;;;;;12.24;57.29;100925.54;1695560;83;21877;-73
2021/10/14 10:43:04;;;;;;;13.60;10.57;;;;;;;12.39;57.11;100925.64;1692350;81;21392;-73
2021/10/14 10:45:53;;;;;;;16.83;11.37;;;;;;;12.39;56.62;100920.28;1704186;83;21538;-72
2021/10/14 10:48:35;;;;;;;15.17;11.27;;;;;;;12.37;56.62;100931.78;1695127;82;21376;-73
2021/10/14 10:51:04;;;;;;;14.83;11.20;;;;;;;12.34;56.13;100926.94;1683623;82;21472;-73
2021/10/14 10:53:41;;;;;;;13.37;10.13;;;;;;;12.35;56.43;100931.25;1689594;83;21402;-75
2021/10/14 10:56:28;;;;;;;11.90;9.37;;;;;;;12.47;56.69;100933.20;1692615;83;21817;-74
2021/10/14 10:58:55;;;;;;;13.90;11.23;;;;;;;12.64;55.74;100920.95;1690535;82;21324;-74
2021/10/14 11:01:22;;;;;;;15.00;11.20;;;;;;;12.75;54.72;100933.85;1698258;82;21470;-74
2021/10/14 11:03:53;;;;;;;13.30;10.80;;;;;;;12.74;54.07;100933.59;1693341;83;21396;-74
2021/10/14 11:06:21;;;;;;;12.15;9.30;;;;;;;12.74;54.07;100933.59;1698292;83;21404;-74
2021/10/14 11:08:48;;;;;;;15.23;10.40;;;;;;;12.73;53.76;100934.63;1673627;84;21090;-74
2021/10/14 11:11:18;;;;;;;15.27;11.00;;;;;;;12.77;52.99;100933.87;1622712;86;21484;-73
2021/10/14 11:13:51;;;;;;;12.53;10.57;;;;;;;12.68;53.08;100942.94;1662937;85;22003;-73
2021/10/14 11:16:20;;;;;;;13.73;10.27;;;;;;;12.57;53.57;100936.44;1663836;84;21515;-74
2021/10/14 11:18:48;;;;;;;13.57;9.50;;;;;;;12.57;53.57;100936.44;1663834;84;21569;-74
2021/10/14 11:21:18;;;;;;;12.80;10.17;;;;;;;12.47;54.10;100932.37;1664097;84;21453;-74
2021/10/14 11:23:47;;;;;;;13.17;10.10;;;;;;;12.39;53.55;100942.52;1663410;85;21626;-73
2021/10/14 11:26:34;;;;;;;12.47;9.43;;;;;;;12.30;53.51;100954.77;1661991;86;21515;-73
2021/10/14 11:29:21;;;;;;;13.93;9.90;;;;;;;12.23;54.44;100951.52;1663173;84;21463;-74
2021/10/14 11:31:54;;;;;;;14.90;9.87;;;;;;;12.16;54.84;100954.96;1671266;84;21622;-74